Daily Tabular Data
[Select Refresh to Update]


6/18/19
Time         Wind Dir   Wind Spd  Wind Gust     Hum In   Humidity    Temp In       Temp  Raw Barom   Tot Rain Wind Chill Heat Ix In Heat Index  Dew Point  DailyRain   HourRain   RainRate
                            mph        mph          %          %         F         F         in         in         F         F         F         F         in         in      in/hr
12:00am           196          0          2         55         92       74.1       60.9      29.06      19.01       60.9       75.4       66.8       58.6       0.00       0.00      0.000
12:30am            99          0          3         55         91       73.9       60.5      29.07      19.01       60.5       75.2       66.3       57.9       0.00       0.00      0.000
1:00am            190          0          3         55         92       73.8       60.5      29.06      19.01       60.5       75.1       66.4       58.2       0.00       0.00      0.000
1:30am            202          0          0         55         92       73.8       60.4      29.07      19.01       60.4       75.1       66.3       58.1       0.00       0.00      0.000
2:00am            159          0          0         55         93       73.7       60.2      29.07      19.01       60.2       75.0       66.3       58.2       0.00       0.00      0.000
2:30am            102          1          4         55         93       73.6       59.8      29.06      19.01       59.8       74.9       65.9       57.8       0.00       0.00      0.000
3:00am            178          0          3         55         94       73.5       59.6      29.06      19.01       59.6       74.8       65.8       57.9       0.00       0.00      0.000
3:30am            188          0          0         55         94       73.4       59.7      29.06      19.01       59.7       74.7       65.9       58.0       0.00       0.00      0.000
4:00am            187          0          3         55         94       73.4       59.8      29.06      19.01       59.8       74.7       66.0       58.1       0.00       0.00      0.000
4:30am            191          0          0         55         95       73.3       59.5      29.06      19.01       59.5       74.6       65.9       58.1       0.00       0.00      0.000
5:00am            217          0          0         55         95       73.2       59.3      29.07      19.01       59.3       74.5       65.7       57.9       0.00       0.00      0.000
5:30am            182          0          0         55         97       73.1       61.7      29.08      19.01       61.7       74.4       68.4       60.8       0.00       0.00      0.000
6:00am            219          0          0         55         96       73.2       60.8      29.09      19.01       60.8       74.5       67.4       59.7       0.00       0.00      0.000
6:30am            220          0          0         55         96       73.1       60.1      29.09      19.01       60.1       74.4       66.7       59.0       0.00       0.00      0.000
7:00am            220          0          0         55         96       73.1       59.9      29.10      19.01       59.9       74.4       66.5       58.8       0.00       0.00      0.000
7:30am            255          0          1         55         96       73.1       59.9      29.10      19.01       59.9       74.4       66.5       58.8       0.00       0.00      0.000
8:00am            255          0          0         55         95       73.0       59.7      29.11      19.01       59.7       74.3       66.1       58.3       0.00       0.00      0.000
8:30am            234          0          0         55         94       73.1       60.7      29.12      19.01       60.7       74.4       66.9       59.0       0.00       0.00      0.000
9:00am            219          0          0         55         93       73.2       61.4      29.12      19.01       61.4       74.5       67.5       59.4       0.00       0.00      0.000
9:30am            201          0          3         55         91       73.5       62.0      29.12      19.01       62.0       74.8       67.8       59.3       0.00       0.00      0.000
10:00am           171          0          4         55         88       73.7       63.2      29.13      19.01       63.2       75.0       68.5       59.6       0.00       0.00      0.000
10:30am           232          0          4         54         84       74.0       65.2      29.14      19.01       65.2       75.2       70.0       60.3       0.00       0.00      0.000
11:00am           247          1          3         54         82       74.3       66.3      29.14      19.01       66.3       75.5       70.8       60.6       0.00       0.00      0.000
11:30am           198          0          5         54         83       74.5       67.7      29.14      19.01       67.7       75.7       72.3       62.4       0.00       0.00      0.000
12:00pm           220          0          4         53         79       74.8       68.6      29.14      19.01       68.6       75.9       72.7       61.8       0.00       0.00      0.000
12:30pm           228          0          4         53         78       75.2       68.0      29.14      19.01       68.0       76.3       72.0       60.9       0.00       0.00      0.000
1:00pm            236          1          8         53         80       75.5       67.3      29.14      19.01       67.3       76.6       71.5       60.9       0.00       0.00      0.000
1:30pm            229          0          4         53         81       75.7       68.1      29.13      19.01       68.1       76.8       72.5       62.1       0.00       0.00      0.000
2:00pm            182          1          9         53         77       76.2       68.6      29.13      19.01       68.6       77.3       72.4       61.1       0.00       0.00      0.000
2:30pm            248          0          6         53         78       76.5       68.0      29.13      19.01       68.0       77.6       72.0       60.9       0.00       0.00      0.000
3:00pm            209          0          5         53         81       76.9       67.0      29.12      19.01       67.0       78.0       71.4       61.0       0.00       0.00      0.000
3:30pm            250          0          4         53         77       76.8       68.0      29.12      19.01       68.0       77.9       71.8       60.5       0.00       0.00      0.000
4:00pm            244          0          8         53         75       76.8       68.6      29.11      19.01       68.6       77.9       72.2       60.4       0.00       0.00      0.000
4:30pm            226          3          7         53         77       77.2       68.5      29.10      19.01       68.5       78.3       72.3       61.0       0.00       0.00      0.000
5:00pm            249          2          6         52         72       77.5       70.7      29.09      19.01       70.7       78.5       73.9       61.2       0.00       0.00      0.000
5:30pm            193          0          6         52         69       78.3       74.1      29.08      19.01       74.1       79.3       76.9       63.3       0.00       0.00      0.000
6:00pm            250          4          8         50         68       79.1       72.4      29.09      19.01       72.4       79.9       75.1       61.3       0.00       0.00      0.000
6:30pm            250          0         10         49         71       79.6       70.9      29.09      19.01       70.9       80.3       74.0       61.0       0.00       0.00      0.000
7:00pm            233          2          9         49         72       79.6       69.3      29.10      19.01       69.3       80.3       72.5       59.9       0.00       0.00      0.000
7:30pm            205          1          5         48         75       79.5       67.9      29.11      19.01       67.9       80.1       71.5       59.7       0.00       0.00      0.000
8:00pm            228          0          2         49         80       77.2       65.8      29.12      19.01       65.8       77.9       70.0       59.5       0.00       0.00      0.000
8:30pm            202          0          2         51         85       75.5       64.5      29.12      19.01       64.5       76.4       69.4       59.9       0.00       0.00      0.000
9:00pm            250          0          0         52         86       74.7       62.6      29.13      19.01       62.6       75.7       67.7       58.4       0.00       0.00      0.000
9:30pm            249          0          4         52         87       75.3       61.5      29.14      19.01       61.5       76.3       66.7       57.6       0.00       0.00      0.000
10:00pm           245          0          4         52         88       75.4       60.9      29.15      19.01       60.9       76.4       66.2       57.3       0.00       0.00      0.000
10:30pm           196          0          0         52         91       75.2       60.8      29.15      19.01       60.8       76.2       66.6       58.2       0.00       0.00      0.000
11:00pm           204          0          0         53         92       75.1       60.1      29.15      19.01       60.1       76.2       66.0       57.8       0.00       0.00      0.000
11:30pm           238          0          2         53         92       74.8       59.9      29.15      19.01       59.9       75.9       65.8       57.6       0.00       0.00      0.000